Weather at Kruglaya Bukhta Heliport

Public forecast

Using degrees Celsius for public forecast. Weather courtesy of forecast.io.

Closest aviation weather report (METAR) to Kruglaya Bukhta Heliport

Report is more than 2 hours old.

Closest report is Anapa Vityazevo Airport, 167.7 nm (310.6 km) E.

2024/06/24 21:00 (retrieved 2 hours ago)

URKA 242100Z 14001MPS 9000 NSC 18/18 Q1009 R21/010070 TEMPO 0500 FG SCT002 RMK QFE752/1003

Closest aviation forecast (TAF) to Kruglaya Bukhta Heliport

Closest forecast is Anapa Vityazevo Airport, 167.7 nm (310.6 km) E.

2024/06/24 21:21 (retrieved 2 hours ago)

TAF TAF URKA 241948Z 2421/2521 06003MPS 6000 SCT016 TEMPO 2500/2506 VRB01MPS SCT016CB BECMG 2506/2508 32006G13MPS SCT020CB PROB40 2506/2515 -TSRA BKN020CB BECMG 2515/2517 35003MPS SCT020